createdAt,value
2018-04-17T00:01:01.437Z,9.20
2018-04-17T00:03:29.060Z,9.20
2018-04-17T00:05:57.069Z,9.20
2018-04-17T00:08:24.689Z,9.20
2018-04-17T00:10:53.073Z,9.20
2018-04-17T00:13:20.733Z,9.20
2018-04-17T00:15:48.358Z,9.20
2018-04-17T00:18:15.983Z,9.10
2018-04-17T00:20:43.646Z,9.10
2018-04-17T00:23:11.262Z,9.00
2018-04-17T00:25:40.565Z,9.00
2018-04-17T00:28:08.324Z,9.00
2018-04-17T00:30:35.938Z,9.00
2018-04-17T00:33:03.561Z,9.00
2018-04-17T00:35:31.225Z,9.00
2018-04-17T00:37:58.841Z,9.00
2018-04-17T00:40:27.237Z,9.00
2018-04-17T00:42:54.900Z,8.90
2018-04-17T00:45:23.299Z,8.90
2018-04-17T00:47:50.925Z,8.90
2018-04-17T00:50:18.585Z,8.90
2018-04-17T00:52:46.205Z,8.90
2018-04-17T00:55:14.591Z,8.80
2018-04-17T00:57:43.030Z,8.80
2018-04-17T01:00:10.770Z,8.80
2018-04-17T01:02:39.162Z,8.70
2018-04-17T01:05:06.829Z,8.70
2018-04-17T01:07:35.213Z,8.60
2018-04-17T01:10:03.632Z,8.60
2018-04-17T01:12:31.304Z,8.50
2018-04-17T01:14:58.925Z,8.50
2018-04-17T01:17:26.541Z,8.50
2018-04-17T01:19:54.201Z,8.40
2018-04-17T01:22:22.593Z,8.40
2018-04-17T01:24:50.985Z,8.40
2018-04-17T01:27:19.413Z,8.40
2018-04-17T01:29:47.033Z,8.40
2018-04-17T01:32:14.650Z,8.40
2018-04-17T01:34:42.308Z,8.40
2018-04-17T01:37:10.849Z,8.40
2018-04-17T01:39:38.464Z,8.40
2018-04-17T01:42:06.889Z,8.30
2018-04-17T01:44:34.512Z,8.30
2018-04-17T01:47:02.125Z,8.30
2018-04-17T01:49:29.782Z,8.20
2018-04-17T01:51:57.393Z,8.20
2018-04-17T01:54:25.009Z,8.10
2018-04-17T01:56:53.436Z,8.10
2018-04-17T01:59:21.049Z,8.10
2018-04-17T02:01:48.673Z,8.00
2018-04-17T02:04:16.408Z,8.00
2018-04-17T02:06:44.025Z,8.00
2018-04-17T02:09:11.646Z,8.00
2018-04-17T02:11:39.309Z,8.00
2018-04-17T02:14:06.927Z,8.00
2018-04-17T02:16:35.301Z,8.10
2018-04-17T02:19:02.949Z,8.00
2018-04-17T02:21:30.610Z,8.00
2018-04-17T02:23:58.245Z,8.00
2018-04-17T02:26:25.998Z,8.00
2018-04-17T02:28:54.386Z,8.00
2018-04-17T02:31:22.000Z,8.00
2018-04-17T02:33:49.657Z,8.00
2018-04-17T02:36:17.273Z,8.00
2018-04-17T02:38:44.929Z,8.00
2018-04-17T02:41:12.687Z,7.90
2018-04-17T02:43:41.229Z,7.90
2018-04-17T02:46:08.957Z,7.90
2018-04-17T02:48:36.709Z,7.90
2018-04-17T02:51:05.095Z,7.80
2018-04-17T02:53:33.469Z,7.80
2018-04-17T02:56:01.126Z,7.80
2018-04-17T02:58:28.753Z,7.80
2018-04-17T03:00:56.370Z,7.90
2018-04-17T03:03:24.147Z,7.90
2018-04-17T03:05:51.770Z,7.90
2018-04-17T03:08:19.385Z,7.90
2018-04-17T03:10:47.055Z,7.80
2018-04-17T03:13:14.680Z,7.80
2018-04-17T03:15:43.073Z,7.60
2018-04-17T03:18:11.494Z,7.60
2018-04-17T03:20:39.117Z,7.60
2018-04-17T03:23:06.731Z,7.60
2018-04-17T03:25:34.408Z,7.60
2018-04-17T03:28:02.032Z,7.50
2018-04-17T03:30:29.653Z,7.50
2018-04-17T03:32:57.417Z,7.50
2018-04-17T03:35:25.033Z,7.50
2018-04-17T03:37:52.694Z,7.50
2018-04-17T03:40:20.366Z,7.50
2018-04-17T03:42:48.014Z,7.40
2018-04-17T03:45:15.629Z,7.40
2018-04-17T03:47:43.398Z,7.40
2018-04-17T03:50:12.482Z,7.40
2018-04-17T03:52:42.800Z,7.40
2018-04-17T03:55:10.417Z,7.40
2018-04-17T03:57:38.271Z,7.40
2018-04-17T04:00:05.933Z,7.30
2018-04-17T04:02:33.599Z,7.30
2018-04-17T04:05:01.277Z,7.30
2018-04-17T04:07:29.109Z,7.30
2018-04-17T04:09:56.730Z,7.30
2018-04-17T04:12:24.353Z,7.30
2018-04-17T04:14:52.114Z,7.30
2018-04-17T04:17:31.729Z,7.30
2018-04-17T04:20:11.401Z,7.30
2018-04-17T04:22:50.977Z,7.30
2018-04-17T04:25:30.737Z,7.30
2018-04-17T04:27:58.353Z,7.30
2018-04-17T04:30:26.737Z,7.40
2018-04-17T04:32:55.185Z,7.40
2018-04-17T04:35:22.810Z,7.40
2018-04-17T04:37:51.215Z,7.50
2018-04-17T04:40:18.930Z,7.50
2018-04-17T04:42:46.679Z,7.60
2018-04-17T04:45:14.302Z,7.70
2018-04-17T04:47:42.956Z,7.80
2018-04-17T04:50:10.623Z,7.80
2018-04-17T04:52:38.283Z,7.90
2018-04-17T04:55:05.953Z,7.90
2018-04-17T04:57:33.581Z,7.90
2018-04-17T05:00:01.193Z,8.00
2018-04-17T05:02:28.949Z,8.10
2018-04-17T05:04:57.355Z,8.90
2018-04-17T05:07:25.155Z,8.90
2018-04-17T05:09:52.822Z,9.40
2018-04-17T05:12:20.436Z,9.90
2018-04-17T05:14:48.174Z,10.40
2018-04-17T05:17:15.843Z,10.90
2018-04-17T05:19:43.465Z,11.40
2018-04-17T05:22:11.095Z,11.80
2018-04-17T05:24:38.763Z,12.10
2018-04-17T05:27:06.383Z,12.40
2018-04-17T05:29:34.005Z,12.60
2018-04-17T05:32:01.682Z,13.10
2018-04-17T05:34:29.304Z,13.60
2018-04-17T05:36:56.929Z,14.20
2018-04-17T05:39:24.715Z,14.30
2018-04-17T05:41:52.377Z,14.70
2018-04-17T05:44:20.006Z,14.90
2018-04-17T05:46:47.753Z,15.40
2018-04-17T05:49:15.373Z,15.90
2018-04-17T05:51:43.781Z,16.30
2018-04-17T05:54:11.597Z,16.30
2018-04-17T05:56:39.221Z,16.60
2018-04-17T05:59:06.850Z,17.30
2018-04-17T06:01:34.513Z,17.70
2018-04-17T06:04:02.129Z,18.20
2018-04-17T06:06:30.511Z,17.50
2018-04-17T06:08:58.949Z,17.40
2018-04-17T06:11:26.579Z,17.40
2018-04-17T06:13:54.968Z,17.60
2018-04-17T06:16:22.641Z,17.60
2018-04-17T06:18:51.029Z,17.40
2018-04-17T06:21:18.654Z,17.40
2018-04-17T06:23:46.325Z,17.60
2018-04-17T06:26:13.945Z,17.60
2018-04-17T06:28:41.578Z,17.50
2018-04-17T06:31:09.266Z,17.60
2018-04-17T06:33:36.890Z,17.90
2018-04-17T06:36:04.505Z,17.60
2018-04-17T06:38:32.169Z,17.70
2018-04-17T06:40:59.794Z,17.60
2018-04-17T06:43:28.180Z,17.30
2018-04-17T06:45:56.621Z,17.10
2018-04-17T06:48:24.245Z,17.10
2018-04-17T06:50:52.633Z,17.10
2018-04-17T06:53:21.075Z,16.70
2018-04-17T06:55:48.702Z,16.70
2018-04-17T06:58:17.097Z,16.10
2018-04-17T07:00:45.523Z,16.10
2018-04-17T07:03:13.249Z,16.10
2018-04-17T07:05:40.870Z,16.30
2018-04-17T07:08:08.533Z,16.20
2018-04-17T07:10:36.157Z,15.90
2018-04-17T07:13:03.797Z,15.80
2018-04-17T07:15:31.478Z,15.60
2018-04-17T07:17:59.092Z,15.60
2018-04-17T07:20:27.486Z,15.90
2018-04-17T07:22:56.010Z,16.30
2018-04-17T07:25:23.678Z,16.30
2018-04-17T07:27:51.294Z,16.30
2018-04-17T07:30:18.962Z,16.10
2018-04-17T07:32:47.522Z,15.90
2018-04-17T07:35:15.139Z,15.80
2018-04-17T07:37:44.234Z,16.20
2018-04-17T07:40:11.853Z,16.20
2018-04-17T07:42:40.249Z,16.20
2018-04-17T07:45:08.682Z,16.50
2018-04-17T07:47:36.297Z,16.50
2018-04-17T07:50:03.929Z,16.40
2018-04-17T07:52:31.591Z,16.70
2018-04-17T07:54:59.205Z,16.90
2018-04-17T07:57:26.818Z,16.90
2018-04-17T07:59:54.485Z,16.90
2018-04-17T08:02:22.105Z,17.40
2018-04-17T08:04:49.766Z,17.70
2018-04-17T08:07:17.428Z,17.80
2018-04-17T08:09:45.044Z,18.00
2018-04-17T08:12:13.598Z,18.30
2018-04-17T08:14:41.265Z,18.00
2018-04-17T08:17:08.881Z,17.80
2018-04-17T08:19:36.550Z,18.00
2018-04-17T08:22:04.205Z,18.20
2018-04-17T08:24:31.820Z,18.40
2018-04-17T08:27:00.200Z,19.30
2018-04-17T08:29:27.965Z,19.30
2018-04-17T08:31:55.585Z,19.60
2018-04-17T08:34:23.212Z,19.70
2018-04-17T08:36:50.913Z,19.30
2018-04-17T08:39:19.293Z,19.60
2018-04-17T08:41:46.913Z,19.50
2018-04-17T08:44:14.568Z,19.80
2018-04-17T08:46:42.211Z,20.00
2018-04-17T08:49:10.598Z,20.10
2018-04-17T08:51:38.561Z,20.10
2018-04-17T08:54:06.212Z,20.40
2018-04-17T08:56:33.834Z,20.70
2018-04-17T08:59:02.258Z,20.90
2018-04-17T09:01:29.883Z,20.90
2018-04-17T09:03:57.503Z,21.00
2018-04-17T09:06:25.165Z,21.10
2018-04-17T09:08:52.782Z,21.20
2018-04-17T09:11:20.409Z,21.40
2018-04-17T09:13:48.074Z,21.20
2018-04-17T09:16:16.475Z,21.30
2018-04-17T09:18:44.093Z,21.20
2018-04-17T09:21:12.548Z,20.80
2018-04-17T09:23:40.185Z,20.80
2018-04-17T09:26:08.569Z,21.00
2018-04-17T09:28:36.294Z,21.00
2018-04-17T09:31:03.912Z,21.20
2018-04-17T09:33:31.529Z,21.30
2018-04-17T09:35:59.240Z,21.40
2018-04-17T09:38:26.845Z,21.50
2018-04-17T09:40:55.229Z,21.70
2018-04-17T09:43:22.892Z,21.70
2018-04-17T09:45:50.529Z,21.20
2018-04-17T09:48:18.140Z,20.70
2018-04-17T09:50:45.901Z,20.50
2018-04-17T09:53:13.517Z,20.50
2018-04-17T09:55:41.897Z,21.30
2018-04-17T09:58:09.565Z,21.20
2018-04-17T10:00:43.553Z,21.50
2018-04-17T10:03:11.310Z,21.50
2018-04-17T10:05:38.971Z,21.60
2018-04-17T10:08:06.637Z,21.60
2018-04-17T10:10:34.315Z,21.40
2018-04-17T10:13:01.929Z,21.50
2018-04-17T10:15:29.557Z,21.50
2018-04-17T10:17:57.212Z,21.30
2018-04-17T10:20:25.613Z,21.00
2018-04-17T10:22:53.229Z,20.90
2018-04-17T10:25:20.889Z,20.80
2018-04-17T10:27:48.508Z,20.90
2018-04-17T10:30:16.125Z,20.80
2018-04-17T10:32:43.781Z,20.70
2018-04-17T10:35:11.397Z,20.60
2018-04-17T10:37:39.042Z,20.50
2018-04-17T10:40:06.707Z,20.50
2018-04-17T10:42:34.325Z,20.50
2018-04-17T10:45:01.954Z,20.50
2018-04-17T10:47:29.624Z,20.60
2018-04-17T10:49:57.245Z,20.80
2018-04-17T10:52:24.905Z,21.00
2018-04-17T10:54:52.565Z,21.20
2018-04-17T10:57:20.186Z,21.20
2018-04-17T10:59:47.847Z,21.10
2018-04-17T11:02:15.629Z,20.90
2018-04-17T11:04:43.257Z,20.70
2018-04-17T11:07:10.873Z,20.70
2018-04-17T11:09:38.535Z,20.70
2018-04-17T11:12:06.149Z,20.80
2018-04-17T11:14:33.770Z,20.90
2018-04-17T11:17:01.438Z,21.10
2018-04-17T11:19:29.053Z,21.20
2018-04-17T11:21:57.437Z,20.90
2018-04-17T11:24:25.099Z,20.90
2018-04-17T11:26:53.486Z,20.60
2018-04-17T11:29:21.109Z,20.60
2018-04-17T11:31:48.770Z,20.70
2018-04-17T11:34:16.393Z,20.70
2018-04-17T11:36:44.027Z,20.90
2018-04-17T11:39:11.822Z,21.00
2018-04-17T11:41:39.434Z,21.10
2018-04-17T11:44:07.830Z,21.00
2018-04-17T11:46:36.270Z,20.80
2018-04-17T11:49:03.896Z,20.80
2018-04-17T11:51:32.324Z,20.90
2018-04-17T11:53:59.985Z,20.90
2018-04-17T11:56:27.605Z,20.90
2018-04-17T11:58:55.225Z,20.70
2018-04-17T12:01:23.045Z,20.70
2018-04-17T12:03:50.695Z,20.70
2018-04-17T12:06:18.314Z,20.50
2018-04-17T12:08:45.969Z,20.60
2018-04-17T12:11:13.585Z,20.80
2018-04-17T12:13:41.970Z,20.90
2018-04-17T12:16:10.389Z,20.90
2018-04-17T12:18:38.006Z,20.90
2018-04-17T12:21:06.401Z,21.00
2018-04-17T12:23:34.119Z,21.00
2018-04-17T12:26:01.732Z,20.60
2018-04-17T12:28:29.353Z,20.40
2018-04-17T12:30:57.054Z,20.50
2018-04-17T12:33:24.669Z,20.60
2018-04-17T12:35:52.309Z,20.80
2018-04-17T12:38:20.085Z,21.00
2018-04-17T12:40:47.709Z,21.10
2018-04-17T12:43:15.957Z,21.20
2018-04-17T12:45:43.914Z,21.20
2018-04-17T12:48:11.528Z,20.90
2018-04-17T12:50:39.155Z,20.20
2018-04-17T12:53:06.809Z,20.20
2018-04-17T12:55:34.435Z,20.30
2018-04-17T12:58:02.174Z,20.50
2018-04-17T13:00:29.859Z,20.60
2018-04-17T13:02:57.481Z,20.50
2018-04-17T13:05:25.102Z,20.40
2018-04-17T13:07:52.762Z,20.30
2018-04-17T13:10:20.381Z,20.30
2018-04-17T13:12:48.785Z,20.40
2018-04-17T13:15:16.441Z,20.40
2018-04-17T13:17:44.083Z,20.40
2018-04-17T13:20:11.979Z,20.30
2018-04-17T13:22:39.642Z,20.40
2018-04-17T13:25:07.286Z,20.50
2018-04-17T13:27:34.915Z,20.40
2018-04-17T13:30:02.570Z,20.40
2018-04-17T13:32:30.190Z,20.50
2018-04-17T13:34:58.565Z,20.70
2018-04-17T13:37:26.229Z,20.70
2018-04-17T13:39:54.740Z,20.60
2018-04-17T13:42:23.167Z,20.50
2018-04-17T13:44:50.857Z,20.50
2018-04-17T13:47:18.482Z,20.50
2018-04-17T13:49:47.934Z,20.50
2018-04-17T13:52:15.718Z,20.50
2018-04-17T13:54:43.385Z,20.40
2018-04-17T13:57:11.054Z,20.30
2018-04-17T13:59:38.717Z,19.80
2018-04-17T14:02:06.341Z,19.60
2018-04-17T14:04:33.969Z,19.50
2018-04-17T14:07:01.637Z,19.70
2018-04-17T14:09:29.260Z,19.90
2018-04-17T14:11:56.985Z,20.20
2018-04-17T14:14:24.658Z,20.50
2018-04-17T14:16:52.283Z,20.60
2018-04-17T14:19:20.067Z,20.70
2018-04-17T14:21:47.744Z,20.80
2018-04-17T14:24:15.361Z,20.80
2018-04-17T14:26:43.043Z,20.60
2018-04-17T14:29:10.705Z,20.70
2018-04-17T14:31:38.321Z,20.70
2018-04-17T14:34:05.953Z,20.70
2018-04-17T14:36:33.609Z,20.70
2018-04-17T14:39:01.990Z,20.60
2018-04-17T14:41:30.381Z,20.50
2018-04-17T14:43:58.815Z,20.50
2018-04-17T14:46:26.443Z,20.50
2018-04-17T14:48:54.861Z,20.40
2018-04-17T14:51:22.593Z,20.40
2018-04-17T14:53:50.634Z,20.40
2018-04-17T14:56:18.259Z,20.40
2018-04-17T14:58:46.929Z,20.50
2018-04-17T15:01:14.548Z,20.50
2018-04-17T15:03:42.270Z,20.50
2018-04-17T15:06:10.119Z,20.50
2018-04-17T15:08:37.909Z,20.60
2018-04-17T15:11:05.529Z,20.60
2018-04-17T15:13:33.199Z,20.70
2018-04-17T15:16:00.832Z,20.60
2018-04-17T15:18:28.510Z,20.50
2018-04-17T15:20:56.183Z,20.20
2018-04-17T15:23:23.844Z,19.90
2018-04-17T15:25:51.471Z,19.50
2018-04-17T15:28:21.993Z,19.10
2018-04-17T15:30:49.732Z,19.10
2018-04-17T15:33:17.388Z,19.10
2018-04-17T15:35:45.054Z,19.10
2018-04-17T15:38:12.683Z,19.20
2018-04-17T15:40:41.141Z,19.20
2018-04-17T15:43:08.843Z,19.20
2018-04-17T15:45:36.470Z,19.30
2018-04-17T15:48:04.093Z,19.30
2018-04-17T15:50:31.978Z,19.30
2018-04-17T15:52:59.632Z,19.10
2018-04-17T15:55:27.270Z,19.20
2018-04-17T15:57:55.069Z,19.30
2018-04-17T16:00:22.685Z,19.20
2018-04-17T16:02:51.809Z,19.30
2018-04-17T16:05:21.371Z,19.20
2018-04-17T16:07:49.045Z,19.20
2018-04-17T16:10:16.679Z,19.10
2018-04-17T16:12:45.107Z,19.00
2018-04-17T16:15:12.822Z,19.00
2018-04-17T16:17:40.461Z,18.90
2018-04-17T16:20:08.126Z,18.80
2018-04-17T16:22:35.769Z,18.70
2018-04-17T16:25:04.184Z,18.60
2018-04-17T16:27:32.057Z,18.60
2018-04-17T16:29:59.677Z,18.60
2018-04-17T16:32:27.310Z,18.50
2018-04-17T16:34:55.093Z,18.50
2018-04-17T16:37:22.734Z,18.50
2018-04-17T16:39:51.935Z,18.50
2018-04-17T16:42:21.288Z,18.50
2018-04-17T16:44:48.924Z,18.40
2018-04-17T16:47:17.352Z,18.60
2018-04-17T16:49:45.150Z,18.60
2018-04-17T16:52:12.828Z,18.80
2018-04-17T16:54:40.501Z,18.90
2018-04-17T16:57:08.313Z,19.00
2018-04-17T16:59:36.729Z,18.90
2018-04-17T17:02:04.358Z,18.90
2018-04-17T17:04:32.039Z,18.80
2018-04-17T17:06:59.659Z,18.70
2018-04-17T17:09:27.288Z,18.80
2018-04-17T17:11:54.961Z,18.80
2018-04-17T17:14:22.582Z,18.90
2018-04-17T17:16:50.254Z,18.80
2018-04-17T17:19:18.445Z,18.80
2018-04-17T17:21:46.061Z,18.70
2018-04-17T17:24:13.690Z,18.60
2018-04-17T17:26:41.362Z,18.60
2018-04-17T17:29:09.025Z,18.40
2018-04-17T17:31:36.650Z,18.30
2018-04-17T17:34:04.311Z,18.20
2018-04-17T17:36:31.930Z,18.20
2018-04-17T17:38:59.553Z,18.10
2018-04-17T17:41:27.226Z,18.00
2018-04-17T17:43:54.842Z,17.90
2018-04-17T17:46:22.514Z,17.80
2018-04-17T17:48:50.202Z,17.80
2018-04-17T17:51:17.823Z,17.80
2018-04-17T17:53:45.459Z,17.70
2018-04-17T17:56:13.133Z,17.60
2018-04-17T17:58:40.757Z,17.60
2018-04-17T18:01:08.383Z,17.50
2018-04-17T18:03:36.057Z,17.50
2018-04-17T18:06:03.835Z,17.50
2018-04-17T18:08:31.508Z,17.40
2018-04-17T18:10:59.255Z,17.40
2018-04-17T18:13:27.651Z,17.20
2018-04-17T18:15:55.350Z,17.20
2018-04-17T18:18:23.131Z,17.20
2018-04-17T18:20:50.881Z,17.00
2018-04-17T18:23:18.511Z,17.10
2018-04-17T18:25:46.165Z,17.10
2018-04-17T18:28:13.800Z,17.10
2018-04-17T18:30:41.520Z,17.20
2018-04-17T18:33:09.278Z,17.20
2018-04-17T18:35:36.906Z,17.20
2018-04-17T18:38:05.363Z,17.10
2018-04-17T18:40:33.137Z,17.10
2018-04-17T18:43:00.787Z,17.10
2018-04-17T18:45:28.447Z,17.00
2018-04-17T18:47:56.158Z,16.90
2018-04-17T18:50:23.806Z,16.90
2018-04-17T18:52:52.158Z,16.80
2018-04-17T18:55:20.593Z,16.90
2018-04-17T18:57:48.230Z,16.80
2018-04-17T19:00:16.651Z,16.80
2018-04-17T19:02:44.334Z,16.80
2018-04-17T19:05:12.028Z,16.80
2018-04-17T19:07:39.845Z,16.80
2018-04-17T19:10:08.274Z,16.70
2018-04-17T19:12:35.959Z,16.60
2018-04-17T19:15:03.735Z,16.60
2018-04-17T19:17:32.336Z,16.60
2018-04-17T19:20:00.025Z,16.60
2018-04-17T19:22:27.740Z,16.80
2018-04-17T19:24:55.629Z,16.50
2018-04-17T19:27:23.318Z,16.50
2018-04-17T19:29:50.937Z,16.50
2018-04-17T19:32:18.598Z,16.40
2018-04-17T19:34:46.242Z,16.40
2018-04-17T19:37:13.902Z,16.40
2018-04-17T19:39:42.651Z,16.40
2018-04-17T19:42:11.214Z,16.30
2018-04-17T19:44:38.880Z,16.40
2018-04-17T19:47:07.661Z,16.30
2018-04-17T19:49:35.503Z,16.30
2018-04-17T19:52:03.143Z,16.30
2018-04-17T19:54:30.826Z,16.30
2018-04-17T19:56:58.511Z,16.20
2018-04-17T19:59:26.173Z,16.20
2018-04-17T20:01:54.790Z,16.10
2018-04-17T20:04:23.240Z,16.10
2018-04-17T20:06:50.905Z,16.00
2018-04-17T20:09:19.433Z,16.00
2018-04-17T20:11:47.088Z,16.00
2018-04-17T20:14:14.727Z,15.90
2018-04-17T20:16:43.176Z,15.90
2018-04-17T20:19:10.801Z,15.90
2018-04-17T20:21:38.427Z,15.90
2018-04-17T20:24:06.099Z,15.90
2018-04-17T20:26:34.501Z,15.80
2018-04-17T20:29:02.222Z,15.80
2018-04-17T20:31:30.617Z,15.80
2018-04-17T20:33:58.249Z,15.70
2018-04-17T20:36:26.642Z,15.70
2018-04-17T20:38:55.098Z,15.70
2018-04-17T20:41:23.682Z,15.60
2018-04-17T20:43:51.410Z,15.60
2018-04-17T20:46:19.223Z,15.60
2018-04-17T20:48:46.874Z,15.50
2018-04-17T20:51:14.513Z,15.50
2018-04-17T20:53:42.175Z,15.50
2018-04-17T20:56:09.794Z,15.50
2018-04-17T20:58:37.696Z,15.40
2018-04-17T21:01:05.415Z,15.40
2018-04-17T21:03:33.810Z,15.30
2018-04-17T21:06:01.473Z,15.30
2018-04-17T21:08:29.138Z,15.30
2018-04-17T21:10:56.753Z,15.20
2018-04-17T21:13:25.257Z,15.20
2018-04-17T21:15:53.129Z,15.10
2018-04-17T21:18:20.753Z,15.10
2018-04-17T21:20:48.477Z,15.00
2018-04-17T21:23:16.142Z,15.00
2018-04-17T21:25:43.798Z,15.00
2018-04-17T21:28:12.189Z,14.80
2018-04-17T21:30:40.713Z,14.80
2018-04-17T21:33:08.371Z,14.80
2018-04-17T21:35:36.000Z,14.80
2018-04-17T21:38:03.877Z,14.80
2018-04-17T21:40:31.509Z,14.80
2018-04-17T21:42:59.130Z,14.80
2018-04-17T21:45:26.793Z,14.70
2018-04-17T21:47:55.465Z,14.60
2018-04-17T21:50:23.089Z,14.60
2018-04-17T21:52:50.790Z,14.60
2018-04-17T21:55:18.413Z,14.60
2018-04-17T21:57:46.109Z,14.50
2018-04-17T22:00:13.770Z,14.50
2018-04-17T22:02:42.176Z,14.50
2018-04-17T22:05:10.569Z,14.50
2018-04-17T22:07:38.389Z,14.40
2018-04-17T22:10:06.166Z,14.40
2018-04-17T22:12:33.790Z,14.40
2018-04-17T22:15:01.827Z,14.40
2018-04-17T22:17:29.449Z,14.30
2018-04-17T22:19:57.841Z,14.30
2018-04-17T22:22:25.515Z,14.20
2018-04-17T22:24:53.239Z,14.20
2018-04-17T22:27:20.862Z,14.20
2018-04-17T22:29:48.571Z,14.10
2018-04-17T22:32:16.249Z,14.10
2018-04-17T22:34:43.923Z,14.00
2018-04-17T22:37:11.586Z,14.00
2018-04-17T22:39:39.206Z,13.90
2018-04-17T22:42:06.843Z,13.90
2018-04-17T22:44:34.513Z,13.90
2018-04-17T22:47:02.129Z,13.90
2018-04-17T22:49:29.761Z,13.90
2018-04-17T22:51:57.446Z,13.90
2018-04-17T22:54:25.096Z,13.80
2018-04-17T22:56:52.733Z,13.80
2018-04-17T22:59:21.161Z,13.80
2018-04-17T23:01:48.781Z,13.80
2018-04-17T23:04:16.401Z,13.80
2018-04-17T23:06:44.915Z,13.70
2018-04-17T23:09:12.536Z,13.70
2018-04-17T23:11:40.154Z,13.70
2018-04-17T23:14:07.832Z,13.70
2018-04-17T23:16:35.486Z,13.60
2018-04-17T23:19:03.925Z,13.60
2018-04-17T23:21:31.683Z,13.60
2018-04-17T23:23:59.317Z,13.60
2018-04-17T23:26:27.711Z,13.50
2018-04-17T23:28:56.215Z,13.50
2018-04-17T23:31:25.528Z,13.40
2018-04-17T23:33:53.209Z,13.40
2018-04-17T23:36:20.989Z,13.40
2018-04-17T23:38:48.625Z,13.40
2018-04-17T23:41:16.352Z,13.30
2018-04-17T23:43:44.048Z,13.30
2018-04-17T23:46:11.669Z,13.30
2018-04-17T23:48:40.057Z,13.20
2018-04-17T23:51:08.573Z,13.20
2018-04-17T23:53:36.194Z,13.20
2018-04-17T23:56:03.950Z,13.20
2018-04-17T23:58:31.615Z,13.20
